Time;durP1;ratioP1;P1;durP2;ratioP2;P2;SDS_P1;SDS_P2;PMS_P1;PMS_P2;Temp;Humidity;BMP_temperature;BMP_pressure;BME280_temperature;BME280_humidity;BME280_pressure;Samples;Min_cycle;Max_cycle;Signal;HPM_P1;HPM_P2
2023/01/30 00:01:17;;;;;;;19.70;10.10;;;;;;;2.86;50.07;101561.03;4946223;28;20161;-70
2023/01/30 00:03:47;;;;;;;18.70;10.05;;;;;;;2.85;50.03;101543.03;4946364;28;20147;-70
2023/01/30 00:06:15;;;;;;;18.13;9.48;;;;;;;2.85;49.86;101543.91;4939505;28;20062;-70
2023/01/30 00:08:42;;;;;;;15.90;9.13;;;;;;;2.86;49.91;101551.09;4943108;28;20051;-70
2023/01/30 00:11:14;;;;;;;17.80;9.55;;;;;;;2.89;50.22;101560.91;4957163;28;20484;-70
2023/01/30 00:13:43;;;;;;;17.53;9.47;;;;;;;2.88;50.12;101578.06;4931503;28;20047;-70
2023/01/30 00:16:11;;;;;;;18.50;10.02;;;;;;;2.90;50.06;101568.06;4935334;28;20040;-70
2023/01/30 00:18:40;;;;;;;17.10;9.57;;;;;;;2.91;50.28;101562.56;4946998;28;20048;-70
2023/01/30 00:21:11;;;;;;;18.50;9.50;;;;;;;2.92;50.40;101542.69;4946297;28;20109;-70
2023/01/30 00:23:39;;;;;;;19.50;10.10;;;;;;;2.92;50.09;101547.22;4953806;28;20143;-70
2023/01/30 00:26:09;;;;;;;18.42;9.95;;;;;;;2.93;50.09;101539.03;4981097;28;20102;-70
2023/01/30 00:28:39;;;;;;;19.65;10.50;;;;;;;2.93;50.29;101549.84;4930705;28;20059;-70
2023/01/30 00:31:07;;;;;;;17.48;10.20;;;;;;;2.95;50.26;101538.97;4954239;28;20489;-70
2023/01/30 00:33:37;;;;;;;16.85;9.77;;;;;;;2.96;50.23;101530.81;4938365;28;20051;-69
2023/01/30 00:36:06;;;;;;;15.55;9.52;;;;;;;2.97;50.44;101527.16;4939525;28;20035;-70
2023/01/30 00:38:35;;;;;;;17.13;8.95;;;;;;;2.97;50.49;101535.28;4939069;28;20031;-70
2023/01/30 00:41:06;;;;;;;18.92;10.43;;;;;;;2.97;50.52;101521.75;4947096;28;20043;-70
2023/01/30 00:49:13;;;;;;;18.92;10.05;;;;;;;2.97;50.53;101500.13;4939475;28;20130;-70
2023/01/30 00:51:42;;;;;;;16.50;9.55;;;;;;;3.00;50.55;101502.66;4964852;28;20043;-70
2023/01/30 00:54:11;;;;;;;17.38;9.48;;;;;;;3.04;50.85;101481.78;4948011;28;20516;-70
2023/01/30 00:56:38;;;;;;;17.55;9.73;;;;;;;3.05;50.61;101474.53;4952256;28;20039;-70
2023/01/30 00:59:06;;;;;;;16.60;9.40;;;;;;;3.06;50.85;101471.78;4955760;28;20093;-70
2023/01/30 01:01:34;;;;;;;17.80;9.60;;;;;;;3.07;50.82;101478.91;4978270;28;20431;-70
2023/01/30 01:04:02;;;;;;;17.92;10.20;;;;;;;3.08;51.03;101480.66;4959174;28;20214;-68
2023/01/30 01:06:30;;;;;;;17.70;9.57;;;;;;;3.10;50.82;101486.91;4952623;28;20053;-67
2023/01/30 01:08:58;;;;;;;18.55;10.05;;;;;;;3.11;50.75;101474.25;4951489;28;20051;-65
2023/01/30 01:11:27;;;;;;;16.52;9.75;;;;;;;3.13;51.03;101477.78;4980210;28;20045;-66
2023/01/30 01:13:57;;;;;;;19.73;10.68;;;;;;;3.14;50.93;101471.41;4960652;28;20738;-67
2023/01/30 01:16:26;;;;;;;17.83;9.93;;;;;;;3.15;50.98;101475.88;4949170;28;20047;-67
2023/01/30 01:18:54;;;;;;;17.13;9.50;;;;;;;3.17;50.98;101473.94;4955387;28;20047;-67
2023/01/30 01:21:23;;;;;;;18.50;10.05;;;;;;;3.18;50.96;101463.06;4953741;28;20047;-67
2023/01/30 01:23:54;;;;;;;19.92;10.63;;;;;;;3.20;50.83;101461.19;4972734;28;20070;-65
2023/01/30 01:26:23;;;;;;;16.88;9.60;;;;;;;3.22;51.09;101458.41;4970598;28;20134;-68
2023/01/30 01:28:55;;;;;;;17.08;9.73;;;;;;;3.23;51.66;101438.53;4959900;28;20053;-68
2023/01/30 01:31:24;;;;;;;17.10;9.38;;;;;;;3.21;51.16;101446.72;4967490;28;20122;-68
2023/01/30 01:33:52;;;;;;;17.58;9.43;;;;;;;3.24;51.18;101434.84;4953806;28;20501;-67
2023/01/30 01:36:20;;;;;;;18.80;10.50;;;;;;;3.26;51.30;101443.78;4955421;28;20804;-67
2023/01/30 01:39:09;;;;;;;18.98;9.73;;;;;;;3.26;51.23;101441.06;4956042;28;20130;-67
2023/01/30 01:41:36;;;;;;;19.05;10.30;;;;;;;3.27;51.29;101432.88;4948134;28;20499;-68
2023/01/30 01:44:07;;;;;;;18.30;9.75;;;;;;;3.31;51.54;101433.66;4958451;28;20043;-67
2023/01/30 01:46:38;;;;;;;18.13;9.73;;;;;;;3.32;51.32;101432.69;4963867;28;20499;-68
2023/01/30 01:49:13;;;;;;;17.55;9.90;;;;;;;3.32;51.45;101430.84;4949452;28;20043;-67
2023/01/30 01:51:49;;;;;;;17.40;9.95;;;;;;;3.35;51.77;101427.13;4991203;28;20051;-68
2023/01/30 01:54:23;;;;;;;18.63;9.95;;;;;;;3.35;51.77;101428.00;4957763;28;20070;-66
2023/01/30 01:56:51;;;;;;;15.52;9.48;;;;;;;3.35;51.32;101429.84;4953347;28;20035;-68
2023/01/30 01:59:24;;;;;;;17.17;9.32;;;;;;;3.37;51.60;101428.81;4945942;28;20057;-68
2023/01/30 02:01:54;;;;;;;;;;;;;;;3.16;52.40;101424.38;4942387;28;20044;-67
2023/01/30 02:05:00;;;;;;;16.13;8.50;;;;;;;3.34;51.43;101411.84;4953232;28;20374;-67
2023/01/30 02:07:17;;;;;;;;;;;;;;;3.16;52.07;101397.34;4936450;28;20125;-66
2023/01/30 02:09:45;;;;;;;15.07;8.45;;;;;;;3.35;51.27;101400.97;4933818;28;19927;-66
2023/01/30 02:12:15;;;;;;;16.98;9.65;;;;;;;3.40;51.42;101404.31;4970944;28;20048;-65
2023/01/30 02:14:45;;;;;;;16.42;9.02;;;;;;;3.45;51.45;101397.81;4965495;28;20047;-66
2023/01/30 02:17:13;;;;;;;18.58;9.05;;;;;;;3.44;51.53;101390.63;4942647;28;20055;-67
2023/01/30 02:19:48;;;;;;;16.00;9.23;;;;;;;3.46;51.91;101375.22;4955960;28;20581;-66
2023/01/30 02:22:32;;;;;;;15.73;9.10;;;;;;;3.48;52.24;101384.13;4953745;28;20117;-68
2023/01/30 02:25:22;;;;;;;16.30;9.13;;;;;;;3.47;52.67;101377.84;4956617;28;20101;-68
2023/01/30 02:28:28;;;;;;;15.52;8.98;;;;;;;3.46;52.44;101369.78;4961614;28;20073;-68
2023/01/30 02:31:20;;;;;;;16.00;8.65;;;;;;;3.50;52.46;101361.44;4988661;28;20478;-68
2023/01/30 02:33:57;;;;;;;18.25;9.40;;;;;;;3.50;52.20;101353.31;4977630;28;20355;-68
2023/01/30 02:36:34;;;;;;;16.58;9.50;;;;;;;3.51;52.31;101360.47;4928523;28;20114;-68
2023/01/30 02:39:08;;;;;;;14.88;8.70;;;;;;;3.53;52.29;101357.72;4956636;28;20039;-68
2023/01/30 02:41:46;;;;;;;14.00;8.60;;;;;;;3.55;52.44;101355.81;4947067;28;20049;-68
2023/01/30 02:44:23;;;;;;;16.30;9.25;;;;;;;3.55;52.29;101343.16;4948448;28;20053;-68
2023/01/30 02:46:57;;;;;;;16.17;9.00;;;;;;;3.58;52.41;101331.28;4964945;28;20051;-66
2023/01/30 02:49:30;;;;;;;16.88;8.90;;;;;;;3.57;52.40;101327.69;4963905;28;20570;-67
2023/01/30 02:52:00;;;;;;;15.75;9.13;;;;;;;3.59;52.17;101324.91;4981368;28;20040;-66
2023/01/30 02:54:28;;;;;;;16.50;9.20;;;;;;;3.59;52.09;101328.50;4977198;28;20051;-66
2023/01/30 02:56:58;;;;;;;14.43;8.48;;;;;;;3.61;52.16;101333.84;4951206;28;20046;-66
2023/01/30 02:59:31;;;;;;;14.45;8.18;;;;;;;3.63;52.22;101311.16;4989720;28;20045;-67
2023/01/30 03:02:27;;;;;;;13.60;8.43;;;;;;;3.62;53.04;101317.53;4998973;28;20408;-67
2023/01/30 03:05:17;;;;;;;14.85;8.60;;;;;;;3.64;53.07;101330.97;4978335;28;20046;-68
2023/01/30 03:07:54;;;;;;;16.48;9.40;;;;;;;3.64;52.67;101315.63;4958687;28;20105;-67
2023/01/30 03:10:32;;;;;;;14.13;8.45;;;;;;;3.66;52.82;101313.69;4974514;28;20059;-68
2023/01/30 03:13:13;;;;;;;16.67;8.95;;;;;;;3.67;52.92;101306.44;4960558;28;20138;-65
2023/01/30 03:15:48;;;;;;;15.45;8.88;;;;;;;3.68;52.37;101306.38;4968348;28;20450;-67
2023/01/30 03:18:19;;;;;;;16.67;9.02;;;;;;;3.69;52.45;101310.84;4960386;28;20047;-66
2023/01/30 03:20:47;;;;;;;14.07;8.52;;;;;;;3.69;52.39;101310.84;4954546;28;20138;-66
2023/01/30 03:23:15;;;;;;;13.80;8.43;;;;;;;3.71;52.35;101311.63;4961813;28;20048;-67
2023/01/30 03:25:46;;;;;;;15.00;8.75;;;;;;;3.74;52.30;101307.88;4961204;28;20416;-65
2023/01/30 03:28:16;;;;;;;14.98;8.98;;;;;;;3.74;52.73;101307.88;4940002;28;20044;-67
2023/01/30 03:30:44;;;;;;;16.13;8.73;;;;;;;3.73;52.40;101301.56;4964289;28;20137;-67
2023/01/30 03:33:13;;;;;;;15.55;8.77;;;;;;;3.74;52.46;101300.63;4958823;28;20058;-66
2023/01/30 03:35:48;;;;;;;15.48;8.73;;;;;;;3.77;52.31;101291.47;4981737;28;20049;-66
2023/01/30 03:38:17;;;;;;;16.40;9.70;;;;;;;3.77;52.37;101284.25;4945523;28;20054;-67
2023/01/30 03:40:46;;;;;;;16.42;9.65;;;;;;;3.79;52.39;101284.16;4931713;28;20051;-67
2023/01/30 03:43:15;;;;;;;15.70;8.82;;;;;;;3.80;52.45;101291.34;4946627;28;20055;-66
2023/01/30 03:45:43;;;;;;;15.18;8.77;;;;;;;3.81;52.59;101278.69;4934283;29;20142;-65
2023/01/30 03:48:11;;;;;;;16.38;9.38;;;;;;;3.82;52.46;101273.16;4942805;28;20130;-68
2023/01/30 03:50:38;;;;;;;15.27;8.90;;;;;;;3.83;52.57;101268.63;4941547;28;20044;-67
2023/01/30 03:53:08;;;;;;;15.88;9.25;;;;;;;3.83;52.60;101266.78;4952013;28;20055;-64
2023/01/30 03:55:36;;;;;;;15.05;8.98;;;;;;;3.86;52.58;101252.22;4956592;28;20055;-67
2023/01/30 03:58:03;;;;;;;17.73;9.20;;;;;;;3.84;52.86;101255.00;4967604;28;20084;-67
2023/01/30 04:00:33;;;;;;;17.65;9.32;;;;;;;3.86;52.67;101249.50;4960541;28;20567;-67
2023/01/30 04:03:01;;;;;;;17.70;9.27;;;;;;;3.85;52.67;101251.34;4960776;28;20054;-67
2023/01/30 04:05:29;;;;;;;14.85;8.75;;;;;;;3.87;52.71;101237.72;4961230;28;20149;-68
2023/01/30 04:08:03;;;;;;;15.80;8.95;;;;;;;3.87;52.85;101233.19;4954049;28;20531;-67
2023/01/30 04:10:32;;;;;;;16.33;9.23;;;;;;;3.89;52.96;101233.13;4957174;28;20131;-66
2023/01/30 04:13:00;;;;;;;15.75;9.98;;;;;;;3.88;52.94;101245.78;4964583;28;20043;-67
2023/01/30 04:15:29;;;;;;;14.70;8.95;;;;;;;3.88;53.04;101228.66;4965283;28;20074;-64
2023/01/30 04:18:15;;;;;;;14.77;8.75;;;;;;;3.88;52.87;101234.06;4959321;28;20066;-66
2023/01/30 04:20:51;;;;;;;15.45;8.73;;;;;;;3.89;52.97;101228.56;4960601;28;20058;-65
2023/01/30 04:23:28;;;;;;;18.35;9.80;;;;;;;3.89;53.04;101216.88;4961899;28;20047;-65
2023/01/30 04:25:58;;;;;;;14.23;9.10;;;;;;;3.91;52.98;101210.38;4959568;28;20436;-66
2023/01/30 04:28:27;;;;;;;15.50;9.68;;;;;;;3.91;52.72;101226.63;4963064;28;20043;-67
2023/01/30 04:30:55;;;;;;;16.17;9.40;;;;;;;3.93;52.81;101219.31;4955315;28;20097;-67
2023/01/30 04:33:42;;;;;;;15.15;9.13;;;;;;;3.93;53.18;101226.56;4952072;28;20065;-67
2023/01/30 04:36:12;;;;;;;15.32;9.40;;;;;;;3.94;53.15;101212.06;4951197;28;20035;-65
2023/01/30 04:38:41;;;;;;;14.68;8.90;;;;;;;3.95;53.29;101221.94;4966822;28;20071;-65
2023/01/30 04:41:10;;;;;;;16.20;8.90;;;;;;;3.98;53.38;101208.22;4964487;28;20322;-67
2023/01/30 04:43:41;;;;;;;16.60;9.38;;;;;;;3.96;53.08;101212.88;4961141;28;20397;-66
2023/01/30 04:46:20;;;;;;;13.70;8.52;;;;;;;3.97;53.24;101218.19;4966623;28;20058;-67
2023/01/30 04:48:48;;;;;;;14.38;9.20;;;;;;;3.99;53.21;101213.56;4958995;28;20105;-66
2023/01/30 04:51:16;;;;;;;13.85;8.95;;;;;;;4.01;53.29;101224.31;4970212;28;20054;-65
2023/01/30 04:53:44;;;;;;;16.00;8.52;;;;;;;4.01;53.44;101222.47;4972058;28;20050;-66
2023/01/30 04:56:15;;;;;;;13.45;8.50;;;;;;;4.03;53.47;101219.69;4969968;28;20551;-67
2023/01/30 04:58:43;;;;;;;15.80;8.48;;;;;;;4.04;53.50;101221.44;4966336;28;20544;-68
2023/01/30 05:01:15;;;;;;;15.48;8.88;;;;;;;4.06;53.78;101217.66;4956159;28;20423;-66
2023/01/30 05:03:44;;;;;;;12.93;8.45;;;;;;;4.05;53.61;101207.81;4963911;28;20034;-67
2023/01/30 05:06:11;;;;;;;13.93;8.40;;;;;;;4.07;53.57;101205.88;4966329;28;20057;-66
2023/01/30 05:08:39;;;;;;;13.07;8.57;;;;;;;4.06;53.66;101206.84;4958445;28;20055;-65
2023/01/30 05:11:07;;;;;;;14.23;8.65;;;;;;;4.09;53.72;101208.50;4961201;28;20055;-65
2023/01/30 05:13:36;;;;;;;13.00;7.95;;;;;;;4.11;53.89;101206.59;4957092;28;20109;-66
2023/01/30 05:16:05;;;;;;;13.05;8.35;;;;;;;4.10;53.78;101205.72;4957526;28;20134;-68
2023/01/30 05:18:32;;;;;;;13.23;7.97;;;;;;;4.11;53.69;101209.31;4958197;28;20050;-67
2023/01/30 05:21:05;;;;;;;12.23;7.82;;;;;;;4.12;54.50;101214.66;4969710;28;20039;-66
2023/01/30 05:23:33;;;;;;;12.82;7.85;;;;;;;4.11;53.82;101203.88;4964370;28;20047;-67
2023/01/30 05:26:01;;;;;;;12.38;7.93;;;;;;;4.12;53.89;101208.34;4950557;28;20043;-67
2023/01/30 05:28:29;;;;;;;11.85;6.88;;;;;;;4.13;53.86;101202.84;4986957;28;20035;-67
2023/01/30 05:31:02;;;;;;;13.60;7.85;;;;;;;4.16;54.57;101212.63;5016594;28;20059;-68
2023/01/30 05:33:30;;;;;;;;;;;;;;;3.92;55.32;101205.84;4997537;28;20123;-68
2023/01/30 05:35:58;;;;;;;12.13;6.78;;;;;;;4.11;53.70;101201.19;4996712;28;19941;-68
2023/01/30 05:38:26;;;;;;;12.10;7.00;;;;;;;4.14;53.70;101204.56;5021342;28;20079;-68
2023/01/30 05:41:01;;;;;;;10.40;6.63;;;;;;;4.18;54.72;101202.59;4991083;28;20054;-65
2023/01/30 05:43:30;;;;;;;10.90;6.57;;;;;;;4.15;53.85;101181.94;4966497;28;20062;-68
2023/01/30 05:46:00;;;;;;;11.45;6.95;;;;;;;4.17;53.98;101179.16;4963430;28;20058;-66
2023/01/30 05:48:29;;;;;;;11.57;6.72;;;;;;;4.18;54.19;101191.75;4959078;28;20042;-67
2023/01/30 05:50:59;;;;;;;9.25;6.15;;;;;;;4.19;54.19;101198.03;4952820;28;20772;-67
2023/01/30 05:53:29;;;;;;;10.02;6.53;;;;;;;4.20;54.26;101181.72;4965173;28;20516;-65
2023/01/30 05:55:58;;;;;;;10.48;6.20;;;;;;;4.20;54.22;101184.44;4959763;28;20055;-66
2023/01/30 05:58:26;;;;;;;10.70;6.78;;;;;;;4.21;54.11;101174.47;4974424;28;20035;-68
2023/01/30 06:00:54;;;;;;;9.98;6.40;;;;;;;4.22;54.20;101184.34;4953459;28;20061;-68
2023/01/30 06:03:22;;;;;;;11.13;6.70;;;;;;;4.22;54.29;101179.81;4953674;28;20051;-68
2023/01/30 06:05:51;;;;;;;9.90;6.47;;;;;;;4.23;54.49;101184.22;4966288;28;20773;-68
2023/01/30 06:08:19;;;;;;;9.70;6.68;;;;;;;4.23;54.20;101181.53;5008941;28;20037;-68
2023/01/30 06:10:47;;;;;;;10.55;6.70;;;;;;;4.23;54.55;101186.94;4969955;28;20059;-70
2023/01/30 06:13:15;;;;;;;10.30;6.60;;;;;;;4.23;54.44;101191.47;4955009;28;20058;-70
2023/01/30 06:15:43;;;;;;;8.93;5.88;;;;;;;4.23;54.52;101202.31;4959468;28;20039;-68
2023/01/30 06:18:11;;;;;;;9.38;6.45;;;;;;;4.24;54.54;101196.81;4958764;28;20096;-68
2023/01/30 06:20:39;;;;;;;8.60;6.00;;;;;;;4.24;54.43;101209.50;4962700;28;20051;-66
2023/01/30 06:23:08;;;;;;;9.05;5.88;;;;;;;4.26;54.66;101215.69;4962070;28;20051;-67
2023/01/30 06:25:36;;;;;;;11.90;6.70;;;;;;;4.24;54.48;101221.19;4950434;28;20082;-71
2023/01/30 06:28:04;;;;;;;9.52;6.43;;;;;;;4.26;54.55;101216.59;4958905;28;20034;-72
2023/01/30 06:30:32;;;;;;;10.82;6.70;;;;;;;4.25;54.67;101209.41;4964236;28;20457;-69
2023/01/30 06:32:59;;;;;;;9.52;6.13;;;;;;;4.26;54.59;101210.28;4960700;28;20510;-67
2023/01/30 06:35:27;;;;;;;10.43;6.15;;;;;;;4.24;54.54;101210.38;4957094;28;20105;-69
2023/01/30 06:37:55;;;;;;;10.05;6.57;;;;;;;4.25;54.70;101219.38;4963213;28;20437;-69
2023/01/30 06:40:25;;;;;;;9.63;6.82;;;;;;;4.27;54.70;101221.03;5016069;28;20441;-70
2023/01/30 06:42:53;;;;;;;10.43;6.10;;;;;;;4.27;54.70;101226.47;4972924;28;20037;-70
2023/01/30 06:45:20;;;;;;;9.18;6.40;;;;;;;4.27;54.78;101225.59;4956237;28;20507;-69
2023/01/30 06:47:50;;;;;;;9.90;6.22;;;;;;;4.27;54.78;101220.16;4948154;28;20039;-68
2023/01/30 06:50:20;;;;;;;10.55;5.95;;;;;;;4.28;54.99;101232.75;4949525;28;20080;-70
2023/01/30 06:52:50;;;;;;;9.65;5.70;;;;;;;4.28;54.80;101232.75;4967422;28;20058;-70
2023/01/30 06:55:20;;;;;;;7.82;5.70;;;;;;;4.28;55.02;101227.34;4970607;28;20053;-69
2023/01/30 06:57:49;;;;;;;8.52;5.82;;;;;;;4.28;55.02;101227.34;4975637;28;20043;-69
2023/01/30 07:00:20;;;;;;;8.43;5.30;;;;;;;4.29;55.27;101232.69;4955048;28;20045;-69
2023/01/30 07:02:48;;;;;;;7.90;5.10;;;;;;;4.29;55.28;101251.66;4966735;28;20038;-70
2023/01/30 07:05:16;;;;;;;7.07;5.30;;;;;;;4.32;55.15;101253.28;4964692;28;20192;-70
2023/01/30 07:07:44;;;;;;;8.15;5.07;;;;;;;4.33;55.29;101236.06;4986686;28;20032;-69
2023/01/30 07:10:12;;;;;;;7.75;5.00;;;;;;;4.35;55.25;101245.00;4960109;28;20409;-68
2023/01/30 07:12:40;;;;;;;7.75;5.40;;;;;;;4.36;55.22;101234.09;4955718;28;20039;-69
2023/01/30 07:15:09;;;;;;;8.73;5.20;;;;;;;4.39;55.24;101233.88;4951477;28;20093;-68
2023/01/30 07:17:39;;;;;;;8.10;5.40;;;;;;;4.39;55.27;101233.88;4960065;28;20057;-70
2023/01/30 07:20:08;;;;;;;9.45;5.97;;;;;;;4.42;55.37;101240.97;4953840;28;20043;-69
2023/01/30 07:22:36;;;;;;;7.65;5.18;;;;;;;4.44;55.37;101225.53;4970122;28;20050;-68
2023/01/30 07:25:04;;;;;;;6.85;5.15;;;;;;;4.46;55.36;101232.63;4968976;28;20055;-69
2023/01/30 07:27:32;;;;;;;7.15;4.93;;;;;;;4.48;55.38;101229.78;4985043;28;20046;-69
2023/01/30 07:30:00;;;;;;;8.57;5.32;;;;;;;4.49;55.33;101229.72;4971766;28;20047;-67
2023/01/30 07:32:29;;;;;;;8.98;5.60;;;;;;;4.52;55.61;101228.69;4973047;28;20046;-66
2023/01/30 07:34:57;;;;;;;9.43;5.50;;;;;;;4.53;55.28;101208.75;4958141;28;20051;-70
2023/01/30 07:37:25;;;;;;;7.60;4.97;;;;;;;4.56;55.33;101216.69;4956793;28;20057;-69
2023/01/30 07:39:53;;;;;;;8.70;5.03;;;;;;;4.58;55.36;101224.72;4964029;28;20055;-69
2023/01/30 07:42:20;;;;;;;8.05;5.57;;;;;;;4.60;55.49;101226.41;4977862;28;20072;-68
2023/01/30 07:44:48;;;;;;;9.07;5.45;;;;;;;4.62;55.56;101242.59;4949299;28;20051;-68
2023/01/30 07:47:18;;;;;;;6.90;4.75;;;;;;;4.63;55.61;101234.38;4985105;28;20054;-69
2023/01/30 07:49:48;;;;;;;7.40;4.57;;;;;;;4.67;55.62;101237.75;4958516;28;20127;-68
2023/01/30 07:52:18;;;;;;;7.38;4.78;;;;;;;4.69;55.65;101243.97;4967011;28;20043;-69
2023/01/30 07:54:46;;;;;;;7.70;4.85;;;;;;;4.68;55.62;101253.06;4965171;28;20055;-69
2023/01/30 07:57:14;;;;;;;8.50;4.95;;;;;;;4.69;55.47;101255.72;4984712;28;20042;-68
2023/01/30 07:59:42;;;;;;;7.18;4.88;;;;;;;4.72;55.52;101260.94;4962429;28;20146;-69
2023/01/30 08:02:11;;;;;;;8.90;5.25;;;;;;;4.74;55.57;101258.13;4980274;28;20046;-69
2023/01/30 08:04:39;;;;;;;10.18;5.65;;;;;;;4.74;55.69;101247.28;4965315;28;20150;-69
2023/01/30 08:07:08;;;;;;;8.73;5.47;;;;;;;4.76;55.53;101250.81;4965249;28;20042;-69
2023/01/30 08:09:36;;;;;;;8.88;5.55;;;;;;;4.76;55.64;101257.09;4974984;28;20563;-69
2023/01/30 08:12:04;;;;;;;8.48;5.43;;;;;;;4.78;55.48;101251.59;4969944;28;20054;-69
2023/01/30 08:14:32;;;;;;;7.18;4.90;;;;;;;4.79;55.40;101247.94;4966501;28;20129;-72
2023/01/30 08:17:00;;;;;;;9.13;5.55;;;;;;;4.80;55.53;101247.81;4965647;28;20043;-72
2023/01/30 08:19:28;;;;;;;8.57;5.07;;;;;;;4.80;55.60;101258.66;4966246;28;20137;-72
2023/01/30 08:21:55;;;;;;;8.45;5.68;;;;;;;4.82;55.47;101250.44;4967820;28;20495;-70
2023/01/30 08:24:25;;;;;;;9.63;5.57;;;;;;;4.84;55.75;101260.25;4964031;28;20056;-66
2023/01/30 08:26:53;;;;;;;8.50;5.40;;;;;;;4.85;55.67;101270.13;4952242;28;20043;-68
2023/01/30 08:29:20;;;;;;;8.63;5.93;;;;;;;4.85;55.58;101275.56;4951066;28;20416;-68
2023/01/30 08:31:48;;;;;;;9.90;5.75;;;;;;;4.86;55.72;101280.03;4960325;28;20043;-67
2023/01/30 08:34:16;;;;;;;9.43;6.35;;;;;;;4.88;55.61;101288.94;4952956;28;20058;-66
2023/01/30 08:36:45;;;;;;;9.10;5.95;;;;;;;4.89;55.65;101271.69;4953867;28;20055;-68
2023/01/30 08:39:13;;;;;;;9.13;5.88;;;;;;;4.91;55.79;101277.91;4956206;28;20038;-68
2023/01/30 08:41:42;;;;;;;9.32;5.65;;;;;;;4.95;55.75;101286.75;4964866;28;20057;-67
2023/01/30 08:44:11;;;;;;;9.10;5.63;;;;;;;4.96;55.94;101283.09;4974321;28;20427;-69
2023/01/30 08:46:39;;;;;;;10.82;6.30;;;;;;;4.98;55.87;101292.00;4947177;28;20055;-69
2023/01/30 08:49:07;;;;;;;10.32;5.63;;;;;;;5.01;55.83;101286.41;4958054;28;20698;-67
2023/01/30 08:51:35;;;;;;;9.02;5.10;;;;;;;5.04;56.03;101283.53;4953131;28;20054;-64
2023/01/30 08:54:03;;;;;;;7.20;5.07;;;;;;;5.07;56.04;101285.16;4972683;28;20046;-68
2023/01/30 08:56:30;;;;;;;9.20;5.28;;;;;;;5.11;55.92;101305.75;4957458;28;20044;-69
2023/01/30 08:59:00;;;;;;;8.30;5.10;;;;;;;5.14;55.79;101313.69;4965172;28;20101;-68
2023/01/30 09:01:27;;;;;;;7.15;4.78;;;;;;;5.16;55.95;101306.34;4959526;28;20039;-68
2023/01/30 09:03:55;;;;;;;9.93;4.78;;;;;;;5.18;55.85;101316.19;4962263;28;20414;-66
2023/01/30 09:06:24;;;;;;;7.28;4.20;;;;;;;5.21;55.64;101312.44;4952477;28;20059;-67
2023/01/30 09:08:53;;;;;;;9.30;4.57;;;;;;;5.23;55.77;101316.78;4964000;28;20504;-67
2023/01/30 09:11:20;;;;;;;9.18;4.63;;;;;;;5.25;55.83;101316.69;4959785;28;20144;-69
2023/01/30 09:13:48;;;;;;;8.63;4.47;;;;;;;5.26;55.70;101316.63;4953340;28;20499;-70
2023/01/30 09:16:18;;;;;;;8.05;4.20;;;;;;;5.30;55.60;101303.72;4953075;28;20530;-70
2023/01/30 09:18:45;;;;;;;8.20;4.10;;;;;;;5.30;55.35;101299.16;4954946;28;20507;-69
2023/01/30 09:21:14;;;;;;;7.60;3.97;;;;;;;5.33;55.36;101280.97;4957687;28;20035;-70
2023/01/30 09:23:42;;;;;;;7.28;3.83;;;;;;;5.35;55.16;101296.19;4950784;28;20090;-67
2023/01/30 09:26:09;;;;;;;11.05;4.57;;;;;;;5.35;55.16;101289.91;4955616;28;20689;-67
2023/01/30 09:28:38;;;;;;;7.63;3.80;;;;;;;5.39;55.45;101296.88;4962678;28;20826;-68
2023/01/30 09:31:05;;;;;;;8.13;4.00;;;;;;;5.39;55.21;101310.44;4959407;28;20049;-68
2023/01/30 09:33:35;;;;;;;6.03;3.42;;;;;;;5.40;55.18;101307.66;4960984;28;20055;-70
2023/01/30 09:36:03;;;;;;;8.98;3.80;;;;;;;5.41;55.11;101319.38;4953446;28;20714;-66
2023/01/30 09:38:30;;;;;;;9.32;3.35;;;;;;;5.42;55.34;101327.44;4953231;28;20155;-70
2023/01/30 09:41:28;;;;;;;8.70;3.03;;;;;;;5.46;55.73;101326.28;4960657;28;20045;-69
2023/01/30 09:44:14;;;;;;;7.82;2.95;;;;;;;5.49;55.92;101331.53;4960194;28;20049;-69
2023/01/30 09:46:48;;;;;;;5.63;2.80;;;;;;;5.54;55.77;101323.16;4954986;28;20057;-68
2023/01/30 09:49:29;;;;;;;6.57;2.63;;;;;;;5.61;55.61;101325.41;4962470;28;20119;-69
2023/01/30 09:52:08;;;;;;;7.00;2.85;;;;;;;5.66;55.51;101325.13;4962161;28;20061;-67
2023/01/30 09:54:39;;;;;;;5.47;2.50;;;;;;;5.71;55.49;101336.56;4959364;28;20499;-70
2023/01/30 09:57:16;;;;;;;7.45;2.78;;;;;;;5.79;55.35;101328.81;4956394;28;20055;-69
2023/01/30 09:59:55;;;;;;;7.97;2.85;;;;;;;5.84;55.12;101325.84;4960359;28;20074;-67
2023/01/30 10:02:41;;;;;;;5.38;2.30;;;;;;;5.89;54.81;101330.03;4952920;28;20050;-70
2023/01/30 10:05:10;;;;;;;6.95;2.22;;;;;;;5.93;55.20;101338.88;4957101;28;20070;-69
2023/01/30 10:07:59;;;;;;;8.63;2.53;;;;;;;5.98;54.29;101331.31;4956759;28;20050;-67
2023/01/30 10:10:41;;;;;;;4.88;1.95;;;;;;;6.01;54.20;101331.16;4953078;28;20073;-70
2023/01/30 10:13:27;;;;;;;6.78;2.30;;;;;;;6.02;53.70;101357.34;4954110;28;20051;-69
2023/01/30 10:16:04;;;;;;;9.18;2.35;;;;;;;6.03;53.96;101338.25;4956611;28;20051;-69
2023/01/30 10:18:49;;;;;;;6.15;1.90;;;;;;;6.05;53.65;101333.56;4951782;28;20031;-69
2023/01/30 10:21:32;;;;;;;6.97;1.88;;;;;;;6.05;53.43;101357.13;4968362;28;20134;-69
2023/01/30 10:24:19;;;;;;;8.25;2.17;;;;;;;6.03;53.59;101376.28;4960314;28;20511;-68
2023/01/30 10:26:48;;;;;;;6.28;1.70;;;;;;;6.01;53.42;101356.47;4963765;28;20074;-67
2023/01/30 10:29:20;;;;;;;5.68;1.55;;;;;;;6.03;53.46;101353.66;4949389;28;20093;-69
2023/01/30 10:31:51;;;;;;;6.97;2.10;;;;;;;6.00;53.31;101360.16;4955885;28;20560;-68
2023/01/30 10:34:23;;;;;;;8.98;2.33;;;;;;;5.99;53.16;101350.25;4959282;28;20055;-69
2023/01/30 10:36:58;;;;;;;4.88;1.85;;;;;;;5.97;52.99;101354.00;4952976;28;20051;-70
2023/01/30 10:39:34;;;;;;;7.38;2.35;;;;;;;5.96;52.48;101336.84;4958411;28;20051;-69
2023/01/30 10:42:11;;;;;;;7.00;2.13;;;;;;;5.94;52.54;101349.66;4963175;28;20088;-68
2023/01/30 10:44:41;;;;;;;6.60;2.17;;;;;;;5.92;53.00;101356.16;4962759;28;20047;-70
2023/01/30 10:47:33;;;;;;;6.53;2.17;;;;;;;5.93;52.36;101361.50;4977665;28;20124;-70
2023/01/30 10:50:16;;;;;;;6.38;2.22;;;;;;;5.88;52.54;101366.31;4957788;28;20133;-69
2023/01/30 10:52:54;;;;;;;4.78;2.05;;;;;;;5.88;52.10;101373.59;4959935;28;20027;-70
2023/01/30 10:55:31;;;;;;;8.25;1.92;;;;;;;5.87;52.10;101372.69;4971282;28;20057;-70
2023/01/30 10:58:14;;;;;;;6.23;1.63;;;;;;;5.84;52.37;101359.31;4964957;28;20099;-67
2023/01/30 11:00:47;;;;;;;5.80;1.80;;;;;;;5.84;52.61;101363.88;4954364;28;20403;-69
2023/01/30 11:03:23;;;;;;;7.03;2.00;;;;;;;5.83;52.16;101354.84;4966913;28;20119;-71
2023/01/30 11:05:52;;;;;;;6.57;2.00;;;;;;;5.82;52.27;101357.66;4956189;28;20101;-71
2023/01/30 11:08:27;;;;;;;7.35;1.85;;;;;;;5.82;51.96;101366.69;4961408;28;20047;-71
2023/01/30 11:10:57;;;;;;;8.30;1.90;;;;;;;5.81;52.13;101362.22;4966456;28;20046;-69
2023/01/30 11:13:29;;;;;;;8.73;2.50;;;;;;;5.78;51.52;101365.13;4984306;28;20046;-70
2023/01/30 11:15:59;;;;;;;5.15;1.70;;;;;;;5.78;52.10;101366.97;4961140;28;20409;-71
2023/01/30 11:18:27;;;;;;;7.50;2.20;;;;;;;5.77;52.04;101366.09;4947178;28;20043;-70
2023/01/30 11:21:22;;;;;;;4.55;1.35;;;;;;;5.77;51.65;101368.81;4961226;28;20484;-68
2023/01/30 11:24:05;;;;;;;6.82;1.77;;;;;;;5.78;51.40;101350.69;4957491;28;20286;-70
2023/01/30 11:26:35;;;;;;;5.97;1.88;;;;;;;5.77;51.85;101354.34;4966633;28;20050;-68
2023/01/30 11:29:27;;;;;;;7.28;1.70;;;;;;;5.78;51.26;101373.28;4962990;28;20055;-70
2023/01/30 11:31:55;;;;;;;8.95;2.60;;;;;;;5.76;52.12;101355.31;4957091;28;20094;-67
2023/01/30 11:34:24;;;;;;;7.00;1.88;;;;;;;5.78;51.83;101370.56;4956385;28;20047;-70
2023/01/30 11:36:52;;;;;;;7.70;1.88;;;;;;;5.80;51.72;101370.44;4974687;28;20045;-69
2023/01/30 11:39:24;;;;;;;6.32;2.25;;;;;;;5.81;51.74;101372.19;4969111;28;20054;-71
2023/01/30 11:42:03;;;;;;;6.93;1.90;;;;;;;5.82;51.29;101374.84;4972840;28;20065;-69
2023/01/30 11:44:34;;;;;;;6.78;1.63;;;;;;;5.83;51.58;101379.31;4953359;28;20043;-68
2023/01/30 11:47:07;;;;;;;4.80;1.77;;;;;;;5.84;51.33;101359.31;4978909;28;20050;-69
2023/01/30 11:49:39;;;;;;;7.70;2.03;;;;;;;5.84;51.14;101372.91;4973602;28;20058;-70
2023/01/30 11:52:30;;;;;;;6.47;1.55;;;;;;;5.85;51.45;101371.94;4978300;28;20042;-70
2023/01/30 11:55:04;;;;;;;6.53;1.80;;;;;;;5.88;51.21;101370.88;4955014;28;20138;-69